Time,TemperatureF,DewpointF,PressureIn,WindDirection,WindDirectionDegrees,WindSpeedMPH,WindSpeedGustMPH,Humidity,HourlyPrecipIn,Conditions,Clouds,dailyrainin,SoftwareType,DateUTC
2013-07-22 00:02:00,74.0,70.0,29.85,South,175,2.0,9.0,88,0.00,,,0.01,,2013-07-22 05:02:00,
2013-07-22 00:11:00,74.0,70.0,29.85,South,175,2.0,9.0,88,0.00,,,0.01,,2013-07-22 05:11:00,
2013-07-22 00:22:00,73.0,70.0,29.86,WSW,237,0.0,5.0,91,0.11,,,0.12,,2013-07-22 05:22:00,
2013-07-22 00:32:00,73.0,70.0,29.86,WSW,237,0.0,5.0,91,0.11,,,0.12,,2013-07-22 05:32:00,
2013-07-22 00:43:00,73.0,70.0,29.86,WSW,237,0.0,5.0,91,0.11,,,0.12,,2013-07-22 05:43:00,
2013-07-22 00:52:00,72.0,70.0,29.84,WSW,237,0.0,2.0,92,0.14,,,0.15,,2013-07-22 05:52:00,
2013-07-22 01:01:00,72.0,70.0,29.84,WSW,237,0.0,2.0,92,0.14,,,0.15,,2013-07-22 06:01:00,
2013-07-22 01:11:00,72.0,70.0,29.84,WSW,237,0.0,2.0,92,0.14,,,0.15,,2013-07-22 06:11:00,
2013-07-22 01:22:00,70.0,67.0,29.85,East,79,6.0,9.0,91,0.40,,,0.52,,2013-07-22 06:22:00,
2013-07-22 01:33:00,70.0,67.0,29.85,East,79,6.0,9.0,91,0.40,,,0.52,,2013-07-22 06:33:00,
2013-07-22 01:43:00,70.0,67.0,29.85,East,79,6.0,9.0,91,0.40,,,0.52,,2013-07-22 06:43:00,
2013-07-22 01:52:00,69.0,67.0,29.85,WNW,288,0.0,4.0,93,1.12,,,1.27,,2013-07-22 06:52:00,
2013-07-22 02:01:00,69.0,67.0,29.85,WNW,288,0.0,4.0,93,1.12,,,1.27,,2013-07-22 07:01:00,
2013-07-22 02:12:00,69.0,67.0,29.85,WNW,288,0.0,4.0,93,1.12,,,1.27,,2013-07-22 07:12:00,
2013-07-22 02:22:00,69.0,67.0,29.85,NNE,22,0.0,1.0,93,0.95,,,1.48,,2013-07-22 07:22:00,
2013-07-22 02:33:00,69.0,67.0,29.85,NNE,22,0.0,1.0,93,0.95,,,1.48,,2013-07-22 07:33:00,
2013-07-22 02:43:00,69.0,67.0,29.85,NNE,22,0.0,1.0,93,0.95,,,1.48,,2013-07-22 07:43:00,
2013-07-22 02:53:00,69.0,67.0,29.84,NNE,22,0.0,0.0,94,0.34,,,1.56,,2013-07-22 07:53:00,
2013-07-22 03:02:00,69.0,67.0,29.84,NNE,22,0.0,0.0,94,0.34,,,1.56,,2013-07-22 08:02:00,
2013-07-22 03:11:00,69.0,67.0,29.84,NNE,22,0.0,0.0,94,0.34,,,1.56,,2013-07-22 08:11:00,
2013-07-22 03:22:00,69.0,67.0,29.84,NNE,22,0.0,1.0,94,0.10,,,1.58,,2013-07-22 08:22:00,
2013-07-22 03:32:00,69.0,67.0,29.84,NNE,22,0.0,1.0,94,0.10,,,1.58,,2013-07-22 08:32:00,
2013-07-22 03:43:00,69.0,67.0,29.84,NNE,22,0.0,1.0,94,0.10,,,1.58,,2013-07-22 08:43:00,
2013-07-22 03:52:00,69.0,67.0,29.82,NNE,22,0.0,1.0,94,0.02,,,1.58,,2013-07-22 08:52:00,
2013-07-22 04:02:00,69.0,67.0,29.82,NNE,22,0.0,1.0,94,0.02,,,1.58,,2013-07-22 09:02:00,
2013-07-22 04:11:00,69.0,67.0,29.82,NNE,22,0.0,1.0,94,0.02,,,1.58,,2013-07-22 09:11:00,
2013-07-22 04:22:00,69.0,67.0,29.82,NNE,22,0.0,2.0,94,0.02,,,1.60,,2013-07-22 09:22:00,
2013-07-22 04:33:00,69.0,67.0,29.82,NNE,22,0.0,2.0,94,0.02,,,1.60,,2013-07-22 09:33:00,
2013-07-22 04:42:00,69.0,67.0,29.82,NNE,22,0.0,2.0,94,0.02,,,1.60,,2013-07-22 09:42:00,
2013-07-22 04:52:00,69.0,68.0,29.83,WNW,282,1.0,4.0,95,0.02,,,1.60,,2013-07-22 09:52:00,
2013-07-22 05:02:00,69.0,68.0,29.83,WNW,282,1.0,4.0,95,0.02,,,1.60,,2013-07-22 10:02:00,
2013-07-22 05:11:00,69.0,68.0,29.83,WNW,282,1.0,4.0,95,0.02,,,1.60,,2013-07-22 10:11:00,
2013-07-22 05:22:00,69.0,68.0,29.83,WNW,282,0.0,3.0,95,0.00,,,1.60,,2013-07-22 10:22:00,
2013-07-22 05:32:00,69.0,68.0,29.83,WNW,282,0.0,3.0,95,0.00,,,1.60,,2013-07-22 10:32:00,
2013-07-22 05:43:00,69.0,68.0,29.83,WNW,282,0.0,3.0,95,0.00,,,1.60,,2013-07-22 10:43:00,
2013-07-22 05:53:00,69.0,68.0,29.83,WNW,282,0.0,1.0,95,0.00,,,1.60,,2013-07-22 10:53:00,
2013-07-22 06:01:00,69.0,68.0,29.83,WNW,282,0.0,1.0,95,0.00,,,1.60,,2013-07-22 11:01:00,
2013-07-22 06:11:00,69.0,68.0,29.83,WNW,282,0.0,1.0,95,0.00,,,1.60,,2013-07-22 11:11:00,
2013-07-22 06:23:00,69.0,68.0,29.83,WNW,282,1.0,3.0,95,0.00,,,1.60,,2013-07-22 11:23:00,
2013-07-22 06:32:00,69.0,68.0,29.83,WNW,282,1.0,3.0,95,0.00,,,1.60,,2013-07-22 11:32:00,
2013-07-22 06:43:00,69.0,68.0,29.83,WNW,282,1.0,3.0,95,0.00,,,1.60,,2013-07-22 11:43:00,
2013-07-22 06:52:00,69.0,68.0,29.84,WNW,291,1.0,4.0,95,0.00,,,1.60,,2013-07-22 11:52:00,
2013-07-22 07:02:00,69.0,68.0,29.84,WNW,291,1.0,4.0,95,0.00,,,1.60,,2013-07-22 12:02:00,
2013-07-22 07:11:00,69.0,68.0,29.84,WNW,291,1.0,4.0,95,0.00,,,1.60,,2013-07-22 12:11:00,
2013-07-22 07:22:00,69.0,68.0,29.84,WNW,291,1.0,4.0,95,0.00,,,1.60,,2013-07-22 12:22:00,
2013-07-22 07:32:00,69.0,68.0,29.84,WNW,291,1.0,4.0,95,0.00,,,1.60,,2013-07-22 12:32:00,
2013-07-22 07:53:00,69.0,68.0,29.85,WNW,291,2.0,4.0,95,0.00,,,1.59,,2013-07-22 12:53:00,
2013-07-22 08:01:00,69.0,68.0,29.85,WNW,291,2.0,4.0,95,0.00,,,1.59,,2013-07-22 13:01:00,
2013-07-22 08:11:00,69.0,68.0,29.85,WNW,291,2.0,4.0,95,0.00,,,1.59,,2013-07-22 13:11:00,
2013-07-22 08:22:00,69.0,67.0,29.85,WNW,289,3.0,6.0,94,0.00,,,1.59,,2013-07-22 13:22:00,
2013-07-22 08:32:00,69.0,67.0,29.85,WNW,289,3.0,6.0,94,0.00,,,1.59,,2013-07-22 13:32:00,
2013-07-22 08:43:00,69.0,67.0,29.85,WNW,289,3.0,6.0,94,0.00,,,1.59,,2013-07-22 13:43:00,
2013-07-22 08:53:00,69.0,67.0,29.85,WNW,283,1.0,4.0,94,0.00,,,1.59,,2013-07-22 13:53:00,
2013-07-22 09:01:00,69.0,67.0,29.85,WNW,283,1.0,4.0,94,0.00,,,1.59,,2013-07-22 14:01:00,
2013-07-22 09:11:00,69.0,67.0,29.85,WNW,283,1.0,4.0,94,0.00,,,1.59,,2013-07-22 14:11:00,
2013-07-22 09:22:00,71.0,69.0,29.85,WNW,293,1.0,5.0,93,0.00,,,1.59,,2013-07-22 14:22:00,
2013-07-22 09:32:00,71.0,69.0,29.85,WNW,293,1.0,5.0,93,0.00,,,1.59,,2013-07-22 14:32:00,
2013-07-22 09:43:00,71.0,69.0,29.85,WNW,293,1.0,5.0,93,0.00,,,1.59,,2013-07-22 14:43:00,
2013-07-22 09:53:00,73.0,69.0,29.85,WNW,293,2.0,4.0,87,0.00,,,1.59,,2013-07-22 14:53:00,
2013-07-22 10:02:00,73.0,69.0,29.85,WNW,293,2.0,4.0,87,0.00,,,1.59,,2013-07-22 15:02:00,
2013-07-22 10:11:00,73.0,69.0,29.85,WNW,293,2.0,4.0,87,0.00,,,1.59,,2013-07-22 15:11:00,
2013-07-22 10:22:00,76.0,70.0,29.86,NW,316,0.0,6.0,83,0.00,,,1.59,,2013-07-22 15:22:00,
2013-07-22 10:33:00,76.0,70.0,29.86,NW,316,0.0,6.0,83,0.00,,,1.59,,2013-07-22 15:33:00,
2013-07-22 10:43:00,76.0,70.0,29.86,NW,316,0.0,6.0,83,0.00,,,1.59,,2013-07-22 15:43:00,
2013-07-22 10:52:00,78.0,70.0,29.86,NW,315,2.0,3.0,76,0.00,,,1.59,,2013-07-22 15:52:00,
2013-07-22 11:01:00,78.0,70.0,29.86,NW,315,2.0,3.0,76,0.00,,,1.59,,2013-07-22 16:01:00,
2013-07-22 11:11:00,78.0,70.0,29.86,NW,315,2.0,3.0,76,0.00,,,1.59,,2013-07-22 16:11:00,
2013-07-22 11:22:00,80.0,69.0,29.86,NNW,343,2.0,4.0,69,0.00,,,1.59,,2013-07-22 16:22:00,
2013-07-22 11:32:00,80.0,69.0,29.86,NNW,343,2.0,4.0,69,0.00,,,1.59,,2013-07-22 16:32:00,
2013-07-22 11:43:00,80.0,69.0,29.86,NNW,343,2.0,4.0,69,0.00,,,1.59,,2013-07-22 16:43:00,
2013-07-22 11:52:00,80.0,69.0,29.86,WNW,286,2.0,4.0,69,0.00,,,1.59,,2013-07-22 16:52:00,
2013-07-22 12:01:00,80.0,69.0,29.86,WNW,286,2.0,4.0,69,0.00,,,1.59,,2013-07-22 17:01:00,
2013-07-22 12:11:00,80.0,69.0,29.86,WNW,286,2.0,4.0,69,0.00,,,1.59,,2013-07-22 17:11:00,
2013-07-22 12:23:00,80.0,68.0,29.86,NW,314,2.0,8.0,68,0.00,,,1.59,,2013-07-22 17:23:00,
2013-07-22 12:32:00,80.0,68.0,29.86,NW,314,2.0,8.0,68,0.00,,,1.59,,2013-07-22 17:32:00,
2013-07-22 12:43:00,80.0,68.0,29.86,NW,314,2.0,8.0,68,0.00,,,1.59,,2013-07-22 17:43:00,
2013-07-22 12:52:00,81.0,69.0,29.86,West,260,1.0,6.0,67,0.00,,,1.59,,2013-07-22 17:52:00,
2013-07-22 13:04:00,81.0,69.0,29.86,West,260,1.0,6.0,67,0.00,,,1.59,,2013-07-22 18:04:00,
2013-07-22 13:15:00,81.0,69.0,29.86,West,260,1.0,6.0,67,0.00,,,1.59,,2013-07-22 18:15:00,
2013-07-22 13:27:00,82.0,71.0,29.85,NW,312,1.0,4.0,69,0.00,,,1.59,,2013-07-22 18:27:00,
2013-07-22 13:36:00,82.0,71.0,29.85,NW,312,1.0,4.0,69,0.00,,,1.59,,2013-07-22 18:36:00,
2013-07-22 13:59:00,82.0,70.0,29.84,NW,306,1.0,4.0,67,0.00,,,1.59,,2013-07-22 18:59:00,
2013-07-22 14:05:00,82.0,70.0,29.84,NW,306,1.0,4.0,67,0.00,,,1.59,,2013-07-22 19:05:00,
2013-07-22 14:16:00,82.0,70.0,29.84,NW,306,1.0,4.0,67,0.00,,,1.59,,2013-07-22 19:16:00,
2013-07-22 14:35:00,83.0,69.0,29.83,WNW,291,2.0,8.0,63,0.00,,,1.59,,2013-07-22 19:35:00,
2013-07-22 14:46:00,83.0,69.0,29.83,WNW,291,2.0,8.0,63,0.00,,,1.59,,2013-07-22 19:46:00,
2013-07-22 14:55:00,83.0,70.0,29.83,WNW,289,2.0,6.0,65,0.00,,,1.59,,2013-07-22 19:55:00,
2013-07-22 15:04:00,83.0,70.0,29.83,WNW,289,2.0,6.0,65,0.00,,,1.59,,2013-07-22 20:04:00,
2013-07-22 15:16:00,83.0,70.0,29.83,WNW,289,2.0,6.0,65,0.00,,,1.59,,2013-07-22 20:16:00,
2013-07-22 15:22:00,84.0,71.0,29.83,West,267,1.0,8.0,66,0.00,,,1.59,,2013-07-22 20:22:00,
2013-07-22 15:32:00,84.0,71.0,29.83,West,267,1.0,8.0,66,0.00,,,1.59,,2013-07-22 20:32:00,
2013-07-22 15:43:00,84.0,71.0,29.83,West,267,1.0,8.0,66,0.00,,,1.59,,2013-07-22 20:43:00,
2013-07-22 15:52:00,85.0,70.0,29.83,West,264,1.0,5.0,60,0.00,,,1.59,,2013-07-22 20:52:00,
2013-07-22 16:01:00,85.0,70.0,29.83,West,264,1.0,5.0,60,0.00,,,1.59,,2013-07-22 21:01:00,
2013-07-22 16:12:00,85.0,70.0,29.83,West,264,1.0,5.0,60,0.00,,,1.59,,2013-07-22 21:12:00,
2013-07-22 16:22:00,84.0,70.0,29.83,WNW,289,1.0,5.0,63,0.00,,,1.59,,2013-07-22 21:22:00,
2013-07-22 16:32:00,84.0,70.0,29.83,WNW,289,1.0,5.0,63,0.00,,,1.59,,2013-07-22 21:32:00,
2013-07-22 16:43:00,84.0,70.0,29.83,WNW,289,1.0,5.0,63,0.00,,,1.59,,2013-07-22 21:43:00,
2013-07-22 16:53:00,84.0,70.0,29.83,SSW,210,1.0,6.0,64,0.00,,,1.59,,2013-07-22 21:53:00,
2013-07-22 17:01:00,84.0,70.0,29.83,SSW,210,1.0,6.0,64,0.00,,,1.59,,2013-07-22 22:01:00,
2013-07-22 17:11:00,84.0,70.0,29.83,SSW,210,1.0,6.0,64,0.00,,,1.59,,2013-07-22 22:11:00,
2013-07-22 17:22:00,85.0,71.0,29.82,SSW,197,1.0,5.0,64,0.00,,,1.59,,2013-07-22 22:22:00,
2013-07-22 17:32:00,85.0,71.0,29.82,SSW,197,1.0,5.0,64,0.00,,,1.59,,2013-07-22 22:32:00,
2013-07-22 17:43:00,85.0,71.0,29.82,SSW,197,1.0,5.0,64,0.00,,,1.59,,2013-07-22 22:43:00,
2013-07-22 17:52:00,84.0,71.0,29.82,WSW,247,1.0,4.0,65,0.00,,,1.59,,2013-07-22 22:52:00,
2013-07-22 18:01:00,84.0,71.0,29.82,WSW,247,1.0,4.0,65,0.00,,,1.59,,2013-07-22 23:01:00,
2013-07-22 18:11:00,84.0,71.0,29.82,WSW,247,1.0,4.0,65,0.00,,,1.59,,2013-07-22 23:11:00,
2013-07-22 18:22:00,84.0,71.0,29.82,WSW,247,1.0,4.0,65,0.00,,,1.59,,2013-07-22 23:22:00,
2013-07-22 18:32:00,84.0,71.0,29.82,WSW,247,1.0,4.0,65,0.00,,,1.59,,2013-07-22 23:32:00,
2013-07-22 18:52:00,83.0,72.0,29.80,West,268,0.0,2.0,69,0.00,,,1.59,,2013-07-22 23:52:00,
2013-07-22 19:01:00,83.0,72.0,29.80,West,268,0.0,2.0,69,0.00,,,1.59,,2013-07-23 00:01:00,
2013-07-22 19:12:00,83.0,72.0,29.80,West,268,0.0,2.0,69,0.00,,,1.59,,2013-07-23 00:12:00,
2013-07-22 19:22:00,83.0,72.0,29.80,West,268,0.0,3.0,70,0.00,,,1.59,,2013-07-23 00:22:00,
2013-07-22 19:32:00,83.0,72.0,29.80,West,268,0.0,3.0,70,0.00,,,1.59,,2013-07-23 00:32:00,
2013-07-22 19:43:00,83.0,72.0,29.80,West,268,0.0,3.0,70,0.00,,,1.59,,2013-07-23 00:43:00,
2013-07-22 19:52:00,82.0,72.0,29.79,West,268,0.0,2.0,71,0.00,,,1.59,,2013-07-23 00:52:00,
2013-07-22 20:01:00,82.0,72.0,29.79,West,268,0.0,2.0,71,0.00,,,1.59,,2013-07-23 01:01:00,
2013-07-22 20:11:00,82.0,72.0,29.79,West,268,0.0,2.0,71,0.00,,,1.59,,2013-07-23 01:11:00,
2013-07-22 20:22:00,82.0,74.0,29.79,West,268,0.0,1.0,76,0.00,,,1.59,,2013-07-23 01:22:00,
2013-07-22 20:32:00,82.0,74.0,29.79,West,268,0.0,1.0,76,0.00,,,1.59,,2013-07-23 01:32:00,
2013-07-22 20:43:00,82.0,74.0,29.79,West,268,0.0,1.0,76,0.00,,,1.59,,2013-07-23 01:43:00,
2013-07-22 20:53:00,80.0,73.0,29.80,West,268,0.0,1.0,79,0.00,,,1.59,,2013-07-23 01:53:00,
2013-07-22 21:02:00,80.0,73.0,29.80,West,268,0.0,1.0,79,0.00,,,1.59,,2013-07-23 02:02:00,
2013-07-22 21:11:00,80.0,73.0,29.80,West,268,0.0,1.0,79,0.00,,,1.59,,2013-07-23 02:11:00,
2013-07-22 21:22:00,78.0,73.0,29.82,West,268,0.0,0.0,84,0.00,,,1.59,,2013-07-23 02:22:00,
2013-07-22 21:33:00,78.0,73.0,29.82,West,268,0.0,0.0,84,0.00,,,1.59,,2013-07-23 02:33:00,
2013-07-22 21:43:00,78.0,73.0,29.82,West,268,0.0,0.0,84,0.00,,,1.59,,2013-07-23 02:43:00,
2013-07-22 21:53:00,77.0,73.0,29.83,West,268,0.0,1.0,87,0.00,,,1.59,,2013-07-23 02:53:00,
2013-07-22 22:01:00,77.0,73.0,29.83,West,268,0.0,1.0,87,0.00,,,1.59,,2013-07-23 03:01:00,
2013-07-22 22:11:00,77.0,73.0,29.83,West,268,0.0,1.0,87,0.00,,,1.59,,2013-07-23 03:11:00,
2013-07-22 22:22:00,77.0,73.0,29.83,West,268,0.0,1.0,87,0.00,,,1.59,,2013-07-23 03:22:00,
2013-07-22 22:33:00,77.0,73.0,29.83,West,268,0.0,1.0,87,0.00,,,1.59,,2013-07-23 03:33:00,
2013-07-22 22:52:00,76.0,73.0,29.83,West,268,0.0,2.0,89,0.00,,,1.59,,2013-07-23 03:52:00,
2013-07-22 23:01:00,76.0,73.0,29.83,West,268,0.0,2.0,89,0.00,,,1.59,,2013-07-23 04:01:00,
2013-07-22 23:11:00,76.0,73.0,29.83,West,268,0.0,2.0,89,0.00,,,1.59,,2013-07-23 04:11:00,
2013-07-22 23:22:00,75.0,72.0,29.83,SE,135,0.0,1.0,90,0.00,,,1.59,,2013-07-23 04:22:00,
2013-07-22 23:32:00,75.0,72.0,29.83,SE,135,0.0,1.0,90,0.00,,,1.59,,2013-07-23 04:32:00,
2013-07-22 23:43:00,75.0,72.0,29.83,SE,135,0.0,1.0,90,0.00,,,1.59,,2013-07-23 04:43:00,
2013-07-22 23:53:00,74.0,71.0,29.85,SE,135,0.0,0.0,90,0.00,,,1.59,,2013-07-23 04:53:00,